Metar Flugplatz Niederstetten

ETHN 250420Z 34003KT 9999 BKN140 11/08 Q1014 BLU



Temperatur Niederstetten
11 Grad Celsius

QNH Niederstetten
1014
==============================================================

TAF Niederstetten:

TAF ETHN 291027Z 2911/3002 24010KT 9999 NSW FEW240 TEMPO 2911/2916 26012G22KT 9999 NSW SCT035 BKN240



Alle Angaben ohne Gewähr